x

Portlock Bank- 76nm Ene Of Kodiak, Ak (46080) Wave Buoy

4:50am - Mon 29th May 2017 All times are AKDT. -8 hours from GMT.

  • Sig Wave height 3.9ft
  • Peak Period 6s
  • Average Period 5s
  • Wind
    9mph, 11mph gusts
  • Sea Temp 45°f
  • Air Temp 44°f
  • Sea Pressure 1010.9mb
  • Portlock Bank- 76nm Ene Of Kodiak, Ak
  • Portlock Bank- 76nm Ene Of Kodiak, Ak

More Historic Weather Station data

Upgrade to MSW Pro to gain access to the past 30 days of data for over 8000 Wavebouys and Weather Stations around the globe.

Join Pro

Comparision Forecast

View Surf forecast
   
Mon 05/29 4:50am 4ft 6s 5s 9 11 mph 1010.9mb 45f 44f
3:50am 4.5ft 7s 5s 9 9 mph 1010.7mb 45f 44f
2:50am 5ft 7s 5s 4 7 mph 1010.5mb 45f 44f
1:50am 5ft 7s 5s 9 11 mph 1010.3mb 45f 44f
12:50am 5.5ft 7s 6s 9 11 mph 1009.9mb 45f 44f
Sun 05/28 11:50pm 5ft 6s 5s 7 9 mph 1009.8mb 45f 44f
10:50pm 5ft 7s 6s 7 9 mph 1009.6mb 45f 44f
9:50pm 5ft 7s 6s 9 11 mph 1009.3mb 45f 44f
8:50pm 5ft 7s 6s 11 13 mph 1009.3mb 45f 44f
7:50pm 6ft 7s 6s 11 13 mph 1009.2mb 45f 44f
6:50pm 5ft 7s 5s 16 18 mph 1009mb 45f 45f
5:50pm 5ft 7s 5s 13 18 mph 1008.9mb 45f 45f
4:50pm 5.5ft 6s 5s 16 18 mph 1008.9mb 45f 45f
3:50pm 6ft 7s 5s 16 18 mph 1008.9mb 45f 45f
2:50pm 6ft 7s 5s 13 18 mph 1008.9mb 45f 45f
1:50pm 6ft 8s 5s 16 18 mph 1008.8mb 45f 44f
12:50pm 6.5ft 7s 5s 13 18 mph 1008.7mb 44f 44f
11:50am 7.5ft 7s 6s 13 18 mph 1008.5mb 44f 44f
10:50am 7ft 8s 6s 9 11 mph 1008.5mb 45f 44f
9:50am 7ft 7s 6s 9 11 mph 1008.5mb 45f 44f
8:50am 7ft 8s 6s 13 18 mph 1008.5mb 45f 44f
7:50am 7.5ft 8s 6s 20 25 mph 1008.4mb 45f 44f
6:50am 8ft 8s 6s 20 25 mph 1008.4mb 45f 45f
5:50am 8ft 8s 6s 20 22 mph 1008.6mb 45f 45f
4:50am 8ft 7s 5s 22 27 mph 1008.9mb 45f 45f
3:50am 8.5ft 7s 5s 25 31 mph 1009.2mb 45f 45f
2:50am 8ft 7s 5s 27 31 mph 1009.8mb 45f 45f
1:50am 8ft 7s 5s 27 31 mph 1010.5mb 45f 45f
12:50am 9ft 7s 5s 27 31 mph 1011mb 45f 45f
Sat 05/27 11:50pm 7.5ft 7s 5s 25 31 mph 1011.6mb 45f 45f
10:50pm 7ft 6s 5s 25 29 mph 1012mb 45f 45f
9:50pm 6ft 6s 5s 22 29 mph 1012.3mb 45f 45f
8:50pm 6ft 7s 5s 20 25 mph 1012.7mb 45f 45f
7:50pm 6ft 6s 5s 18 20 mph 1013.3mb 45f 44f
6:50pm 5ft 6s 5s 16 18 mph 1013.6mb 45f 44f
5:50pm 5ft 5s 4s 18 22 mph 1013.8mb 45f 44f
4:50pm 5ft 6s 4s 22 27 mph 1013.6mb 45f 45f
3:50pm 5.5ft 5s 4s 22 27 mph 1014mb 45f 45f
2:50pm 4.5ft 5s 4s 20 22 mph 1014.2mb 45f 44f
1:50pm 4.5ft 4s 4s 22 27 mph 1014.5mb 45f 44f
12:50pm 4ft 4s 4s 16 18 mph 1015mb 45f 43f
11:50am 4.5ft 5s 4s 18 20 mph 1015.8mb 45f 42f
10:50am 4ft 5s 4s 16 18 mph 1016.4mb 45f 42f
9:50am 4ft 6s 5s 18 20 mph 1016.7mb 45f 42f
8:50am 3.5ft 5s 4s 16 20 mph 1017.1mb 45f 41f
7:50am 3.5ft 4s 4s 16 20 mph 1017.1mb 45f 42f
6:50am 3.5ft 5s 4s 13 18 mph 1017.1mb 45f 42f
5:50am 3.5ft 6s 4s 16 18 mph 1017.3mb 45f 42f
4:50am 3.5ft 5s 4s 18 20 mph 1017.5mb 45f 43f
3:50am 3.5ft 6s 4s 16 18 mph 1017.8mb 45f 42f
2:50am 3.5ft 6s 4s 13 18 mph 1018.4mb 45f 43f
1:50am 3.5ft 6s 4s 18 22 mph 1018.7mb 45f 43f
12:50am 4ft 5s 4s 11 16 mph 1019.1mb 45f 42f
Fri 05/26 11:50pm 4ft 6s 4s 16 20 mph 1019.5mb 45f 41f
10:50pm 4ft 6s 4s 9 11 mph 1019.4mb 45f 42f
9:50pm 3.5ft 6s 4s 16 27 mph 1019.5mb 45f 42f
8:50pm 3.5ft 5s 4s 13 16 mph 1019.6mb 45f 44f
7:50pm 3.5ft 5s 4s 13 18 mph 1019.8mb 45f 44f
6:50pm 3.5ft 5s 5s 16 18 mph 1019.9mb 45f 44f
5:50pm 3.5ft 5s 4s 16 20 mph 1020mb 45f 43f
4:50pm 3.5ft 6s 4s 11 16 mph 1020.3mb 45f 43f
3:50pm 4ft 5s 4s 18 22 mph 1020.4mb 45f 45f
2:50pm 4ft 6s 4s 18 20 mph 1020.3mb 45f 44f
1:50pm 4.5ft 9s 5s 13 16 mph 1020.4mb 45f 44f
12:50pm 4.5ft 6s 5s 13 16 mph 1020.5mb 45f 44f
11:50am 4.5ft 6s 5s 13 18 mph 1020.6mb 45f 44f
10:50am 4.5ft 6s 5s 13 16 mph 1020.6mb 45f 44f
9:50am 4.5ft 7s 5s 13 16 mph 1020.6mb 45f 44f
8:50am 4.5ft 7s 5s 13 18 mph 1020.6mb 44f 44f
7:50am 5ft 6s 5s 16 18 mph 1020.4mb 44f 44f
6:50am 5ft 7s 5s 18 20 mph 1020.1mb 44f 44f
5:50am 5ft 6s 5s 18 20 mph 1020.1mb 44f 44f
4:50am 5ft 6s 5s 16 20 mph 1019.9mb 44f 44f
3:50am 5ft 7s 5s 16 18 mph 1020mb 44f 44f
2:50am 5ft 7s 5s 13 16 mph 1020.2mb 45f 44f
1:50am 5ft 6s 5s 16 18 mph 1020.2mb 45f 44f
12:50am 5ft 6s 5s 16 20 mph 1019.9mb 45f 45f
Thu 05/25 11:50pm 5ft 6s 5s 16 20 mph 1019.8mb 45f 45f
10:50pm 5ft 7s 5s 16 18 mph 1019.6mb 45f 45f
9:50pm 5ft 7s 5s 13 16 mph 1019.5mb 45f 45f
8:50pm 5ft 8s 5s 13 16 mph 1019.3mb 45f 45f
7:50pm 5ft 7s 5s 16 18 mph 1019.1mb 45f 45f
6:50pm 5.5ft 7s 5s 18 20 mph 1018.9mb 45f 45f
5:50pm 5.5ft 8s 5s 16 18 mph 1018.7mb 45f 45f
4:50pm 5.5ft 6s 5s 11 13 mph 1018.6mb 45f 45f
3:50pm 5.5ft 9s 5s 13 16 mph 1018.4mb 45f 44f
2:50pm 5.5ft 8s 5s 18 20 mph 1018.2mb 45f 44f